sensor_id;sensor_type;location;lat;lon;timestamp;temperature;humidity
32706;DHT22;19094;50.972;3.538;2023-06-24T00:00:28;24.50;53.50
32706;DHT22;19094;50.972;3.538;2023-06-24T00:02:54;24.50;53.60
32706;DHT22;19094;50.972;3.538;2023-06-24T00:05:20;24.50;53.60
32706;DHT22;19094;50.972;3.538;2023-06-24T00:07:45;24.40;53.60
32706;DHT22;19094;50.972;3.538;2023-06-24T00:10:14;24.50;53.70
32706;DHT22;19094;50.972;3.538;2023-06-24T00:12:40;24.50;53.70
32706;DHT22;19094;50.972;3.538;2023-06-24T00:15:07;24.50;53.70
32706;DHT22;19094;50.972;3.538;2023-06-24T00:17:35;24.40;53.70
32706;DHT22;19094;50.972;3.538;2023-06-24T00:20:01;24.40;53.70
32706;DHT22;19094;50.972;3.538;2023-06-24T00:22:29;24.40;53.60
32706;DHT22;19094;50.972;3.538;2023-06-24T00:24:55;24.40;54.20
32706;DHT22;19094;50.972;3.538;2023-06-24T00:27:22;24.40;53.50
32706;DHT22;19094;50.972;3.538;2023-06-24T00:29:47;24.40;53.50
32706;DHT22;19094;50.972;3.538;2023-06-24T00:32:13;24.40;53.60
32706;DHT22;19094;50.972;3.538;2023-06-24T00:34:39;24.40;53.70
32706;DHT22;19094;50.972;3.538;2023-06-24T00:37:09;24.30;53.70
32706;DHT22;19094;50.972;3.538;2023-06-24T00:39:35;24.30;53.70
32706;DHT22;19094;50.972;3.538;2023-06-24T00:42:01;24.30;53.80
32706;DHT22;19094;50.972;3.538;2023-06-24T00:44:27;24.30;53.90
32706;DHT22;19094;50.972;3.538;2023-06-24T00:46:53;24.30;53.90
32706;DHT22;19094;50.972;3.538;2023-06-24T00:49:21;24.30;53.90
32706;DHT22;19094;50.972;3.538;2023-06-24T00:51:46;24.30;53.90
32706;DHT22;19094;50.972;3.538;2023-06-24T00:54:18;24.30;53.80
32706;DHT22;19094;50.972;3.538;2023-06-24T00:56:46;24.30;53.80
32706;DHT22;19094;50.972;3.538;2023-06-24T00:59:16;24.30;53.80
32706;DHT22;19094;50.972;3.538;2023-06-24T01:01:42;24.30;53.70
32706;DHT22;19094;50.972;3.538;2023-06-24T01:04:10;24.20;53.80
32706;DHT22;19094;50.972;3.538;2023-06-24T01:06:36;24.20;53.80
32706;DHT22;19094;50.972;3.538;2023-06-24T01:09:02;24.20;53.80
32706;DHT22;19094;50.972;3.538;2023-06-24T01:11:30;24.10;53.80
32706;DHT22;19094;50.972;3.538;2023-06-24T01:13:56;24.10;53.90
32706;DHT22;19094;50.972;3.538;2023-06-24T01:16:57;24.10;53.80
32706;DHT22;19094;50.972;3.538;2023-06-24T01:24:51;24.10;54.10
32706;DHT22;19094;50.972;3.538;2023-06-24T01:30:34;24.10;54.00
32706;DHT22;19094;50.972;3.538;2023-06-24T01:33:10;24.10;54.20
32706;DHT22;19094;50.972;3.538;2023-06-24T01:35:41;24.10;54.20
32706;DHT22;19094;50.972;3.538;2023-06-24T01:38:12;24.00;54.80
32706;DHT22;19094;50.972;3.538;2023-06-24T01:40:44;24.00;54.10
32706;DHT22;19094;50.972;3.538;2023-06-24T01:43:12;24.10;54.10
32706;DHT22;19094;50.972;3.538;2023-06-24T01:45:49;24.10;54.00
32706;DHT22;19094;50.972;3.538;2023-06-24T01:48:25;24.00;53.80
32706;DHT22;19094;50.972;3.538;2023-06-24T01:51:13;24.10;54.20
32706;DHT22;19094;50.972;3.538;2023-06-24T01:53:44;24.10;54.20
32706;DHT22;19094;50.972;3.538;2023-06-24T01:56:14;24.00;54.20
32706;DHT22;19094;50.972;3.538;2023-06-24T01:58:42;24.00;54.20
32706;DHT22;19094;50.972;3.538;2023-06-24T02:01:09;24.00;54.20
32706;DHT22;19094;50.972;3.538;2023-06-24T02:03:35;24.00;54.10
32706;DHT22;19094;50.972;3.538;2023-06-24T02:06:02;24.00;54.20
32706;DHT22;19094;50.972;3.538;2023-06-24T02:08:32;23.90;54.10
32706;DHT22;19094;50.972;3.538;2023-06-24T02:11:00;23.90;54.00
32706;DHT22;19094;50.972;3.538;2023-06-24T02:13:26;23.90;52.80
32706;DHT22;19094;50.972;3.538;2023-06-24T02:15:55;23.90;52.70
32706;DHT22;19094;50.972;3.538;2023-06-24T02:18:21;23.90;53.30
32706;DHT22;19094;50.972;3.538;2023-06-24T02:20:49;23.90;53.10
32706;DHT22;19094;50.972;3.538;2023-06-24T02:23:16;23.80;53.60
32706;DHT22;19094;50.972;3.538;2023-06-24T02:25:42;23.80;52.80
32706;DHT22;19094;50.972;3.538;2023-06-24T02:28:08;23.80;52.70
32706;DHT22;19094;50.972;3.538;2023-06-24T02:30:36;23.80;53.00
32706;DHT22;19094;50.972;3.538;2023-06-24T02:33:02;23.70;53.20
32706;DHT22;19094;50.972;3.538;2023-06-24T02:35:28;23.80;53.10
32706;DHT22;19094;50.972;3.538;2023-06-24T02:37:53;23.70;53.30
32706;DHT22;19094;50.972;3.538;2023-06-24T02:40:19;23.70;53.50
32706;DHT22;19094;50.972;3.538;2023-06-24T02:42:45;23.60;53.60
32706;DHT22;19094;50.972;3.538;2023-06-24T02:45:12;23.60;53.80
32706;DHT22;19094;50.972;3.538;2023-06-24T02:47:38;23.60;53.70
32706;DHT22;19094;50.972;3.538;2023-06-24T02:50:06;23.60;53.60
32706;DHT22;19094;50.972;3.538;2023-06-24T02:52:33;23.60;53.50
32706;DHT22;19094;50.972;3.538;2023-06-24T02:55:02;23.50;54.00
32706;DHT22;19094;50.972;3.538;2023-06-24T02:57:28;23.60;54.00
32706;DHT22;19094;50.972;3.538;2023-06-24T02:59:55;23.50;53.80
32706;DHT22;19094;50.972;3.538;2023-06-24T03:02:21;23.50;53.90
32706;DHT22;19094;50.972;3.538;2023-06-24T03:04:50;23.50;53.70
32706;DHT22;19094;50.972;3.538;2023-06-24T03:07:16;23.50;53.80
32706;DHT22;19094;50.972;3.538;2023-06-24T03:09:46;23.50;54.00
32706;DHT22;19094;50.972;3.538;2023-06-24T03:12:12;23.50;53.80
32706;DHT22;19094;50.972;3.538;2023-06-24T03:14:37;23.50;54.30
32706;DHT22;19094;50.972;3.538;2023-06-24T03:17:03;23.50;54.10
32706;DHT22;19094;50.972;3.538;2023-06-24T03:19:29;23.50;54.20
32706;DHT22;19094;50.972;3.538;2023-06-24T03:21:55;23.40;54.20
32706;DHT22;19094;50.972;3.538;2023-06-24T03:24:20;23.40;54.20
32706;DHT22;19094;50.972;3.538;2023-06-24T03:26:46;23.40;54.40
32706;DHT22;19094;50.972;3.538;2023-06-24T03:29:12;23.40;54.60
32706;DHT22;19094;50.972;3.538;2023-06-24T03:31:38;23.40;54.60
32706;DHT22;19094;50.972;3.538;2023-06-24T03:34:09;23.30;54.50
32706;DHT22;19094;50.972;3.538;2023-06-24T03:36:35;23.30;54.80
32706;DHT22;19094;50.972;3.538;2023-06-24T03:39:04;23.20;54.80
32706;DHT22;19094;50.972;3.538;2023-06-24T03:41:29;23.20;55.00
32706;DHT22;19094;50.972;3.538;2023-06-24T03:43:55;23.20;55.00
32706;DHT22;19094;50.972;3.538;2023-06-24T03:46:21;23.20;55.00
32706;DHT22;19094;50.972;3.538;2023-06-24T03:48:47;23.20;55.10
32706;DHT22;19094;50.972;3.538;2023-06-24T03:51:13;23.20;55.20
32706;DHT22;19094;50.972;3.538;2023-06-24T03:53:38;23.10;55.30
32706;DHT22;19094;50.972;3.538;2023-06-24T03:56:04;23.10;55.30
32706;DHT22;19094;50.972;3.538;2023-06-24T03:58:30;23.10;55.20
32706;DHT22;19094;50.972;3.538;2023-06-24T04:00:58;23.00;55.40
32706;DHT22;19094;50.972;3.538;2023-06-24T04:03:24;23.00;55.50
32706;DHT22;19094;50.972;3.538;2023-06-24T04:05:55;23.00;55.50
32706;DHT22;19094;50.972;3.538;2023-06-24T04:08:21;22.90;55.60
32706;DHT22;19094;50.972;3.538;2023-06-24T04:10:47;23.00;55.70
32706;DHT22;19094;50.972;3.538;2023-06-24T04:13:12;22.90;55.70
32706;DHT22;19094;50.972;3.538;2023-06-24T04:15:38;22.90;55.80
32706;DHT22;19094;50.972;3.538;2023-06-24T04:18:04;22.90;56.00
32706;DHT22;19094;50.972;3.538;2023-06-24T04:20:30;22.90;55.70
32706;DHT22;19094;50.972;3.538;2023-06-24T04:22:55;22.90;56.00
32706;DHT22;19094;50.972;3.538;2023-06-24T04:25:21;22.90;55.90
32706;DHT22;19094;50.972;3.538;2023-06-24T04:27:46;22.90;55.70
32706;DHT22;19094;50.972;3.538;2023-06-24T04:30:12;22.80;56.00
32706;DHT22;19094;50.972;3.538;2023-06-24T04:32:38;22.80;56.00
32706;DHT22;19094;50.972;3.538;2023-06-24T04:35:04;22.80;56.10
32706;DHT22;19094;50.972;3.538;2023-06-24T04:37:30;22.80;56.00
32706;DHT22;19094;50.972;3.538;2023-06-24T04:39:55;22.70;56.40
32706;DHT22;19094;50.972;3.538;2023-06-24T04:42:21;22.80;56.20
32706;DHT22;19094;50.972;3.538;2023-06-24T04:44:48;22.80;56.20
32706;DHT22;19094;50.972;3.538;2023-06-24T04:47:17;22.80;56.20
32706;DHT22;19094;50.972;3.538;2023-06-24T04:49:43;22.70;56.20
32706;DHT22;19094;50.972;3.538;2023-06-24T04:52:09;22.70;56.10
32706;DHT22;19094;50.972;3.538;2023-06-24T04:54:35;22.70;56.40
32706;DHT22;19094;50.972;3.538;2023-06-24T04:57:01;22.80;56.20
32706;DHT22;19094;50.972;3.538;2023-06-24T04:59:27;22.80;56.30
32706;DHT22;19094;50.972;3.538;2023-06-24T05:01:52;22.70;56.10
32706;DHT22;19094;50.972;3.538;2023-06-24T05:04:18;22.70;56.20
32706;DHT22;19094;50.972;3.538;2023-06-24T05:06:44;22.80;56.40
32706;DHT22;19094;50.972;3.538;2023-06-24T05:09:09;22.80;56.30
32706;DHT22;19094;50.972;3.538;2023-06-24T05:11:39;22.80;56.30
32706;DHT22;19094;50.972;3.538;2023-06-24T05:14:05;22.80;56.40
32706;DHT22;19094;50.972;3.538;2023-06-24T05:16:31;22.80;56.20
32706;DHT22;19094;50.972;3.538;2023-06-24T05:18:56;22.80;56.50
32706;DHT22;19094;50.972;3.538;2023-06-24T05:21:22;22.80;56.50
32706;DHT22;19094;50.972;3.538;2023-06-24T05:23:48;22.80;56.60
32706;DHT22;19094;50.972;3.538;2023-06-24T05:26:14;22.70;56.60
32706;DHT22;19094;50.972;3.538;2023-06-24T05:28:41;22.80;56.70
32706;DHT22;19094;50.972;3.538;2023-06-24T05:31:06;22.80;56.70
32706;DHT22;19094;50.972;3.538;2023-06-24T05:33:32;22.70;56.60
32706;DHT22;19094;50.972;3.538;2023-06-24T05:35:58;22.80;56.40
32706;DHT22;19094;50.972;3.538;2023-06-24T05:38:23;22.80;56.70
32706;DHT22;19094;50.972;3.538;2023-06-24T05:40:49;22.80;56.70
32706;DHT22;19094;50.972;3.538;2023-06-24T05:43:15;22.70;56.70
32706;DHT22;19094;50.972;3.538;2023-06-24T05:45:40;22.70;56.80
32706;DHT22;19094;50.972;3.538;2023-06-24T05:48:06;22.80;56.50
32706;DHT22;19094;50.972;3.538;2023-06-24T05:50:32;22.80;56.60
32706;DHT22;19094;50.972;3.538;2023-06-24T05:52:58;22.90;56.50
32706;DHT22;19094;50.972;3.538;2023-06-24T05:55:23;22.80;56.80
32706;DHT22;19094;50.972;3.538;2023-06-24T05:57:49;22.80;56.70
32706;DHT22;19094;50.972;3.538;2023-06-24T06:00:17;22.80;56.60
32706;DHT22;19094;50.972;3.538;2023-06-24T06:02:43;22.90;56.80
32706;DHT22;19094;50.972;3.538;2023-06-24T06:05:08;22.90;56.70
32706;DHT22;19094;50.972;3.538;2023-06-24T06:07:34;22.90;56.60
32706;DHT22;19094;50.972;3.538;2023-06-24T06:10:00;22.90;56.50
32706;DHT22;19094;50.972;3.538;2023-06-24T06:12:26;22.90;56.60
32706;DHT22;19094;50.972;3.538;2023-06-24T06:14:51;22.90;56.70
32706;DHT22;19094;50.972;3.538;2023-06-24T06:17:17;22.90;56.60
32706;DHT22;19094;50.972;3.538;2023-06-24T06:19:43;22.80;56.70
32706;DHT22;19094;50.972;3.538;2023-06-24T06:22:12;22.80;56.80
32706;DHT22;19094;50.972;3.538;2023-06-24T06:24:39;22.90;56.80
32706;DHT22;19094;50.972;3.538;2023-06-24T06:27:08;22.90;56.70
32706;DHT22;19094;50.972;3.538;2023-06-24T06:29:34;22.90;56.80
32706;DHT22;19094;50.972;3.538;2023-06-24T06:31:59;22.90;56.70
32706;DHT22;19094;50.972;3.538;2023-06-24T06:34:25;22.90;56.60
32706;DHT22;19094;50.972;3.538;2023-06-24T06:36:51;22.90;56.70
32706;DHT22;19094;50.972;3.538;2023-06-24T06:39:16;22.90;57.10
32706;DHT22;19094;50.972;3.538;2023-06-24T06:41:42;22.90;56.90
32706;DHT22;19094;50.972;3.538;2023-06-24T06:44:07;23.00;56.80
32706;DHT22;19094;50.972;3.538;2023-06-24T06:46:33;23.00;56.40
32706;DHT22;19094;50.972;3.538;2023-06-24T06:48:59;23.10;56.50
32706;DHT22;19094;50.972;3.538;2023-06-24T06:51:25;23.10;56.50
32706;DHT22;19094;50.972;3.538;2023-06-24T06:53:51;23.20;56.40
32706;DHT22;19094;50.972;3.538;2023-06-24T06:56:23;23.20;56.20
32706;DHT22;19094;50.972;3.538;2023-06-24T06:58:53;23.20;56.10
32706;DHT22;19094;50.972;3.538;2023-06-24T07:01:18;23.30;56.00
32706;DHT22;19094;50.972;3.538;2023-06-24T07:03:44;23.30;56.00
32706;DHT22;19094;50.972;3.538;2023-06-24T07:06:10;23.40;55.90
32706;DHT22;19094;50.972;3.538;2023-06-24T07:08:36;23.40;55.80
32706;DHT22;19094;50.972;3.538;2023-06-24T07:11:04;23.40;55.90
32706;DHT22;19094;50.972;3.538;2023-06-24T07:13:30;23.50;55.80
32706;DHT22;19094;50.972;3.538;2023-06-24T07:15:56;23.40;55.60
32706;DHT22;19094;50.972;3.538;2023-06-24T07:18:22;23.40;55.70
32706;DHT22;19094;50.972;3.538;2023-06-24T07:20:47;23.50;55.60
32706;DHT22;19094;50.972;3.538;2023-06-24T07:23:14;23.50;55.50
32706;DHT22;19094;50.972;3.538;2023-06-24T07:25:39;23.50;55.50
32706;DHT22;19094;50.972;3.538;2023-06-24T07:28:05;23.60;55.40
32706;DHT22;19094;50.972;3.538;2023-06-24T07:30:31;23.60;55.40
32706;DHT22;19094;50.972;3.538;2023-06-24T07:32:56;23.60;56.00
32706;DHT22;19094;50.972;3.538;2023-06-24T07:35:22;23.60;55.30
32706;DHT22;19094;50.972;3.538;2023-06-24T07:37:48;23.60;55.30
32706;DHT22;19094;50.972;3.538;2023-06-24T07:40:14;23.60;55.30
32706;DHT22;19094;50.972;3.538;2023-06-24T07:42:41;23.70;55.30
32706;DHT22;19094;50.972;3.538;2023-06-24T07:45:07;23.70;55.50
32706;DHT22;19094;50.972;3.538;2023-06-24T07:47:32;23.70;55.30
32706;DHT22;19094;50.972;3.538;2023-06-24T07:49:58;23.70;55.40
32706;DHT22;19094;50.972;3.538;2023-06-24T07:52:24;23.60;55.70
32706;DHT22;19094;50.972;3.538;2023-06-24T07:54:49;23.60;55.50
32706;DHT22;19094;50.972;3.538;2023-06-24T07:57:15;23.70;55.60
32706;DHT22;19094;50.972;3.538;2023-06-24T07:59:40;23.70;55.60
32706;DHT22;19094;50.972;3.538;2023-06-24T08:02:06;23.70;55.20
32706;DHT22;19094;50.972;3.538;2023-06-24T08:04:32;23.80;55.20
32706;DHT22;19094;50.972;3.538;2023-06-24T08:06:58;23.80;55.30
32706;DHT22;19094;50.972;3.538;2023-06-24T08:09:23;23.80;55.30
32706;DHT22;19094;50.972;3.538;2023-06-24T08:11:49;23.80;55.50
32706;DHT22;19094;50.972;3.538;2023-06-24T08:14:15;23.90;55.40
32706;DHT22;19094;50.972;3.538;2023-06-24T08:16:40;23.90;55.40
32706;DHT22;19094;50.972;3.538;2023-06-24T08:19:06;23.90;55.40
32706;DHT22;19094;50.972;3.538;2023-06-24T08:21:31;23.90;55.00
32706;DHT22;19094;50.972;3.538;2023-06-24T08:23:57;24.00;55.00
32706;DHT22;19094;50.972;3.538;2023-06-24T08:26:23;24.00;55.20
32706;DHT22;19094;50.972;3.538;2023-06-24T08:28:49;24.00;55.20
32706;DHT22;19094;50.972;3.538;2023-06-24T08:31:14;24.10;55.30
32706;DHT22;19094;50.972;3.538;2023-06-24T08:33:44;24.10;55.00
32706;DHT22;19094;50.972;3.538;2023-06-24T08:36:11;24.00;55.20
32706;DHT22;19094;50.972;3.538;2023-06-24T08:38:36;24.00;55.90
32706;DHT22;19094;50.972;3.538;2023-06-24T08:41:02;24.10;55.60
32706;DHT22;19094;50.972;3.538;2023-06-24T08:43:28;24.20;55.20
32706;DHT22;19094;50.972;3.538;2023-06-24T08:45:54;24.20;55.00
32706;DHT22;19094;50.972;3.538;2023-06-24T08:48:20;24.30;54.80
32706;DHT22;19094;50.972;3.538;2023-06-24T08:50:50;24.30;55.00
32706;DHT22;19094;50.972;3.538;2023-06-24T08:53:17;24.30;54.90
32706;DHT22;19094;50.972;3.538;2023-06-24T08:55:45;24.40;54.90
32706;DHT22;19094;50.972;3.538;2023-06-24T08:58:11;24.40;54.90
32706;DHT22;19094;50.972;3.538;2023-06-24T09:00:36;24.40;54.50
32706;DHT22;19094;50.972;3.538;2023-06-24T09:03:02;24.50;54.70
32706;DHT22;19094;50.972;3.538;2023-06-24T09:05:28;24.50;54.50
32706;DHT22;19094;50.972;3.538;2023-06-24T09:07:54;24.60;54.60
32706;DHT22;19094;50.972;3.538;2023-06-24T09:10:33;24.60;54.10
32706;DHT22;19094;50.972;3.538;2023-06-24T09:13:08;24.70;54.50
32706;DHT22;19094;50.972;3.538;2023-06-24T09:15:35;24.70;54.10
32706;DHT22;19094;50.972;3.538;2023-06-24T09:18:02;24.80;54.00
32706;DHT22;19094;50.972;3.538;2023-06-24T09:20:30;24.80;54.20
32706;DHT22;19094;50.972;3.538;2023-06-24T09:23:03;24.80;53.80
32706;DHT22;19094;50.972;3.538;2023-06-24T09:25:29;24.80;53.90
32706;DHT22;19094;50.972;3.538;2023-06-24T09:28:01;24.90;53.50
32706;DHT22;19094;50.972;3.538;2023-06-24T09:30:27;24.90;53.40
32706;DHT22;19094;50.972;3.538;2023-06-24T09:32:53;24.90;53.30
32706;DHT22;19094;50.972;3.538;2023-06-24T09:35:21;25.00;53.30
32706;DHT22;19094;50.972;3.538;2023-06-24T09:37:57;25.00;53.90
32706;DHT22;19094;50.972;3.538;2023-06-24T09:40:25;25.00;53.30
32706;DHT22;19094;50.972;3.538;2023-06-24T09:42:55;24.80;53.90
32706;DHT22;19094;50.972;3.538;2023-06-24T09:45:26;24.30;55.50
32706;DHT22;19094;50.972;3.538;2023-06-24T09:47:52;24.60;54.80
32706;DHT22;19094;50.972;3.538;2023-06-24T09:50:18;24.90;54.10
32706;DHT22;19094;50.972;3.538;2023-06-24T09:52:45;25.00;53.60
32706;DHT22;19094;50.972;3.538;2023-06-24T09:55:13;25.10;53.30
32706;DHT22;19094;50.972;3.538;2023-06-24T09:57:42;25.10;53.30
32706;DHT22;19094;50.972;3.538;2023-06-24T10:00:10;25.20;53.20
32706;DHT22;19094;50.972;3.538;2023-06-24T10:02:36;25.10;53.60
32706;DHT22;19094;50.972;3.538;2023-06-24T10:05:03;24.70;54.00
32706;DHT22;19094;50.972;3.538;2023-06-24T10:07:31;24.70;54.30
32706;DHT22;19094;50.972;3.538;2023-06-24T10:09:58;24.40;55.00
32706;DHT22;19094;50.972;3.538;2023-06-24T10:12:24;24.30;55.30
32706;DHT22;19094;50.972;3.538;2023-06-24T10:14:52;24.70;54.80
32706;DHT22;19094;50.972;3.538;2023-06-24T10:17:18;24.90;54.20
32706;DHT22;19094;50.972;3.538;2023-06-24T10:19:44;24.90;54.00
32706;DHT22;19094;50.972;3.538;2023-06-24T10:22:10;24.50;54.90
32706;DHT22;19094;50.972;3.538;2023-06-24T10:24:40;24.80;54.40
32706;DHT22;19094;50.972;3.538;2023-06-24T10:27:23;24.70;54.40
32706;DHT22;19094;50.972;3.538;2023-06-24T10:29:50;24.80;53.70
32706;DHT22;19094;50.972;3.538;2023-06-24T10:32:18;24.80;53.60
32706;DHT22;19094;50.972;3.538;2023-06-24T10:34:45;24.90;53.00
32706;DHT22;19094;50.972;3.538;2023-06-24T10:37:21;25.00;52.70
32706;DHT22;19094;50.972;3.538;2023-06-24T10:42:43;25.10;51.80
32706;DHT22;19094;50.972;3.538;2023-06-24T10:47:38;24.90;51.80
32706;DHT22;19094;50.972;3.538;2023-06-24T10:50:05;25.10;51.80
32706;DHT22;19094;50.972;3.538;2023-06-24T10:52:31;25.10;51.60
32706;DHT22;19094;50.972;3.538;2023-06-24T10:54:57;25.00;51.70
32706;DHT22;19094;50.972;3.538;2023-06-24T10:57:27;24.90;51.60
32706;DHT22;19094;50.972;3.538;2023-06-24T10:59:56;25.00;52.10
32706;DHT22;19094;50.972;3.538;2023-06-24T11:02:26;24.90;51.00
32706;DHT22;19094;50.972;3.538;2023-06-24T11:04:54;25.00;51.70
32706;DHT22;19094;50.972;3.538;2023-06-24T11:07:21;24.90;51.30
32706;DHT22;19094;50.972;3.538;2023-06-24T11:09:55;25.00;51.00
32706;DHT22;19094;50.972;3.538;2023-06-24T11:12:30;25.30;50.30
32706;DHT22;19094;50.972;3.538;2023-06-24T11:15:01;25.80;49.40
32706;DHT22;19094;50.972;3.538;2023-06-24T11:17:27;26.00;49.00
32706;DHT22;19094;50.972;3.538;2023-06-24T11:19:54;26.10;49.20
32706;DHT22;19094;50.972;3.538;2023-06-24T11:22:20;26.20;49.20
32706;DHT22;19094;50.972;3.538;2023-06-24T11:24:46;26.20;49.10
32706;DHT22;19094;50.972;3.538;2023-06-24T11:27:12;26.20;48.40
32706;DHT22;19094;50.972;3.538;2023-06-24T11:29:38;26.30;48.60
32706;DHT22;19094;50.972;3.538;2023-06-24T11:32:07;26.30;48.70
32706;DHT22;19094;50.972;3.538;2023-06-24T11:34:33;26.40;48.30
32706;DHT22;19094;50.972;3.538;2023-06-24T11:37:08;26.40;48.20
32706;DHT22;19094;50.972;3.538;2023-06-24T11:39:34;26.40;48.50
32706;DHT22;19094;50.972;3.538;2023-06-24T11:42:00;26.40;48.60
32706;DHT22;19094;50.972;3.538;2023-06-24T11:44:26;26.50;48.30
32706;DHT22;19094;50.972;3.538;2023-06-24T11:46:52;26.50;47.60
32706;DHT22;19094;50.972;3.538;2023-06-24T11:49:18;26.60;47.60
32706;DHT22;19094;50.972;3.538;2023-06-24T11:51:48;26.70;46.80
32706;DHT22;19094;50.972;3.538;2023-06-24T11:54:15;26.70;47.40
32706;DHT22;19094;50.972;3.538;2023-06-24T11:56:42;26.80;48.20
32706;DHT22;19094;50.972;3.538;2023-06-24T11:59:22;26.80;48.30
32706;DHT22;19094;50.972;3.538;2023-06-24T12:01:57;26.80;48.40
32706;DHT22;19094;50.972;3.538;2023-06-24T12:04:30;26.80;47.20
32706;DHT22;19094;50.972;3.538;2023-06-24T12:06:56;26.90;46.20
32706;DHT22;19094;50.972;3.538;2023-06-24T12:09:22;27.00;45.60
32706;DHT22;19094;50.972;3.538;2023-06-24T12:11:48;27.10;46.80
32706;DHT22;19094;50.972;3.538;2023-06-24T12:14:14;27.10;47.50
32706;DHT22;19094;50.972;3.538;2023-06-24T12:16:40;27.10;46.20
32706;DHT22;19094;50.972;3.538;2023-06-24T12:19:06;27.20;47.30
32706;DHT22;19094;50.972;3.538;2023-06-24T12:21:32;27.20;47.50
32706;DHT22;19094;50.972;3.538;2023-06-24T12:23:58;27.30;45.20
32706;DHT22;19094;50.972;3.538;2023-06-24T12:26:24;27.40;44.10
32706;DHT22;19094;50.972;3.538;2023-06-24T12:28:50;27.50;46.60
32706;DHT22;19094;50.972;3.538;2023-06-24T12:31:15;27.40;46.70
32706;DHT22;19094;50.972;3.538;2023-06-24T12:33:41;27.60;44.40
32706;DHT22;19094;50.972;3.538;2023-06-24T12:36:06;27.70;45.20
32706;DHT22;19094;50.972;3.538;2023-06-24T12:38:32;27.70;42.60
32706;DHT22;19094;50.972;3.538;2023-06-24T12:40:58;27.80;44.90
32706;DHT22;19094;50.972;3.538;2023-06-24T12:43:24;27.90;44.00
32706;DHT22;19094;50.972;3.538;2023-06-24T12:45:49;28.00;42.20
32706;DHT22;19094;50.972;3.538;2023-06-24T12:48:16;28.10;44.60
32706;DHT22;19094;50.972;3.538;2023-06-24T12:50:42;28.20;42.90
32706;DHT22;19094;50.972;3.538;2023-06-24T12:53:08;28.20;43.90
32706;DHT22;19094;50.972;3.538;2023-06-24T12:55:36;28.20;43.90
32706;DHT22;19094;50.972;3.538;2023-06-24T12:58:02;28.30;43.90
32706;DHT22;19094;50.972;3.538;2023-06-24T13:00:27;28.30;43.10
32706;DHT22;19094;50.972;3.538;2023-06-24T13:02:53;28.40;44.80
32706;DHT22;19094;50.972;3.538;2023-06-24T13:05:19;28.50;41.60
32706;DHT22;19094;50.972;3.538;2023-06-24T13:07:45;28.60;44.50
32706;DHT22;19094;50.972;3.538;2023-06-24T13:10:10;28.50;44.50
32706;DHT22;19094;50.972;3.538;2023-06-24T13:12:36;28.60;43.90
32706;DHT22;19094;50.972;3.538;2023-06-24T13:15:03;28.40;43.90
32706;DHT22;19094;50.972;3.538;2023-06-24T13:17:32;28.50;43.30
32706;DHT22;19094;50.972;3.538;2023-06-24T13:19:58;28.80;42.90
32706;DHT22;19094;50.972;3.538;2023-06-24T13:22:23;28.90;42.10
32706;DHT22;19094;50.972;3.538;2023-06-24T13:24:49;28.90;42.10
32706;DHT22;19094;50.972;3.538;2023-06-24T13:27:16;29.10;42.30
32706;DHT22;19094;50.972;3.538;2023-06-24T13:29:42;29.10;42.10
32706;DHT22;19094;50.972;3.538;2023-06-24T13:32:08;29.10;44.30
32706;DHT22;19094;50.972;3.538;2023-06-24T13:34:34;29.10;44.70
32706;DHT22;19094;50.972;3.538;2023-06-24T13:37:00;29.00;45.30
32706;DHT22;19094;50.972;3.538;2023-06-24T13:39:25;28.90;45.20
32706;DHT22;19094;50.972;3.538;2023-06-24T13:41:53;29.20;44.70
32706;DHT22;19094;50.972;3.538;2023-06-24T13:44:19;29.40;42.30
32706;DHT22;19094;50.972;3.538;2023-06-24T13:46:45;29.50;41.60
32706;DHT22;19094;50.972;3.538;2023-06-24T13:49:10;29.60;41.60
32706;DHT22;19094;50.972;3.538;2023-06-24T13:51:36;29.70;41.90
32706;DHT22;19094;50.972;3.538;2023-06-24T13:54:02;29.80;42.80
32706;DHT22;19094;50.972;3.538;2023-06-24T13:56:28;29.90;43.10
32706;DHT22;19094;50.972;3.538;2023-06-24T13:58:54;29.80;42.90
32706;DHT22;19094;50.972;3.538;2023-06-24T14:01:21;29.90;42.00
32706;DHT22;19094;50.972;3.538;2023-06-24T14:03:47;30.00;42.60
32706;DHT22;19094;50.972;3.538;2023-06-24T14:06:18;30.00;41.50
32706;DHT22;19094;50.972;3.538;2023-06-24T14:08:44;30.20;40.80
32706;DHT22;19094;50.972;3.538;2023-06-24T14:11:10;30.20;42.20
32706;DHT22;19094;50.972;3.538;2023-06-24T14:13:36;30.20;41.90
32706;DHT22;19094;50.972;3.538;2023-06-24T14:16:03;30.20;40.40
32706;DHT22;19094;50.972;3.538;2023-06-24T14:18:29;30.40;40.00
32706;DHT22;19094;50.972;3.538;2023-06-24T14:20:58;30.20;40.50
32706;DHT22;19094;50.972;3.538;2023-06-24T14:23:24;30.20;40.60
32706;DHT22;19094;50.972;3.538;2023-06-24T14:25:53;30.20;41.60
32706;DHT22;19094;50.972;3.538;2023-06-24T14:28:19;30.30;40.60
32706;DHT22;19094;50.972;3.538;2023-06-24T14:30:45;30.40;40.40
32706;DHT22;19094;50.972;3.538;2023-06-24T14:33:12;30.50;39.10
32706;DHT22;19094;50.972;3.538;2023-06-24T14:35:37;30.70;40.40
32706;DHT22;19094;50.972;3.538;2023-06-24T14:38:03;30.50;40.70
32706;DHT22;19094;50.972;3.538;2023-06-24T14:40:29;30.60;39.60
32706;DHT22;19094;50.972;3.538;2023-06-24T14:42:54;30.60;41.80
32706;DHT22;19094;50.972;3.538;2023-06-24T14:45:20;30.30;42.40
32706;DHT22;19094;50.972;3.538;2023-06-24T14:47:46;30.10;43.10
32706;DHT22;19094;50.972;3.538;2023-06-24T14:50:11;30.00;43.30
32706;DHT22;19094;50.972;3.538;2023-06-24T14:52:37;30.10;43.30
32706;DHT22;19094;50.972;3.538;2023-06-24T14:55:03;30.10;41.90
32706;DHT22;19094;50.972;3.538;2023-06-24T14:57:28;30.50;41.80
32706;DHT22;19094;50.972;3.538;2023-06-24T14:59:54;30.30;41.40
32706;DHT22;19094;50.972;3.538;2023-06-24T15:02:19;30.60;40.20
32706;DHT22;19094;50.972;3.538;2023-06-24T15:04:45;30.90;39.50
32706;DHT22;19094;50.972;3.538;2023-06-24T15:07:11;30.90;41.20
32706;DHT22;19094;50.972;3.538;2023-06-24T15:09:37;30.70;41.90
32706;DHT22;19094;50.972;3.538;2023-06-24T15:12:03;30.90;39.10
32706;DHT22;19094;50.972;3.538;2023-06-24T15:14:29;31.20;39.40
32706;DHT22;19094;50.972;3.538;2023-06-24T15:16:54;31.20;41.10
32706;DHT22;19094;50.972;3.538;2023-06-24T15:19:23;31.10;41.20
32706;DHT22;19094;50.972;3.538;2023-06-24T15:21:49;31.30;41.10
32706;DHT22;19094;50.972;3.538;2023-06-24T15:24:15;31.50;40.10
32706;DHT22;19094;50.972;3.538;2023-06-24T15:26:40;31.50;38.20
32706;DHT22;19094;50.972;3.538;2023-06-24T15:29:06;31.70;37.40
32706;DHT22;19094;50.972;3.538;2023-06-24T15:31:31;31.80;40.40
32706;DHT22;19094;50.972;3.538;2023-06-24T15:33:57;31.70;38.30
32706;DHT22;19094;50.972;3.538;2023-06-24T15:36:23;31.80;37.20
32706;DHT22;19094;50.972;3.538;2023-06-24T15:38:52;31.90;40.60
32706;DHT22;19094;50.972;3.538;2023-06-24T15:41:18;31.70;40.00